Time;durP1;ratioP1;P1;durP2;ratioP2;P2;SDS_P1;SDS_P2;PMS_P1;PMS_P2;Temp;Humidity;BMP_temperature;BMP_pressure;BME280_temperature;BME280_humidity;BME280_pressure;Samples;Min_cycle;Max_cycle;Signal;HPM_P1;HPM_P2
2022/06/17 00:00:43;;;;;;;;;;;;;;;21.86;37.78;100460.84;1090219;54;19927;-82
2022/06/17 00:01:46;;;;;;;;;;;;;;;21.90;37.53;100459.38;1090184;54;19942;-85
2022/06/17 00:02:49;;;;;;;;;;;;;;;21.88;37.50;100464.19;1091068;46;19933;-83
2022/06/17 00:03:51;;;;;;;;;;;;;;;21.91;37.81;100460.19;1092158;46;19934;-83
2022/06/17 00:04:55;;;;;;;;;;;;;;;21.87;37.94;100459.78;1091569;46;19926;-81
2022/06/17 00:05:59;;;;;;;;;;;;;;;21.83;38.10;100469.41;1090053;54;19942;-81
2022/06/17 00:07:04;;;;;;;;;;;;;;;21.84;37.82;100465.66;1090076;54;19994;-83
2022/06/17 00:08:05;;;;;;;;;;;;;;;21.82;38.04;100470.47;1090010;54;19938;-81
2022/06/17 00:09:10;;;;;;;;;;;;;;;21.84;37.87;100475.69;1090062;54;19942;-83
2022/06/17 00:10:16;;;;;;;;;;;;;;;21.78;37.96;100477.38;1090062;54;19934;-84
2022/06/17 00:11:25;;;;;;;;;;;;;;;21.74;38.32;100476.09;1089674;54;19938;-81
2022/06/17 00:12:26;;;;;;;;;;;;;;;21.73;38.31;100479.88;1094263;38;20556;-82
2022/06/17 00:13:29;;;;;;;;;;;;;;;21.72;38.12;100473.59;1089467;54;19998;-82
2022/06/17 00:15:11;;;;;;;;;;;;;;;21.74;38.33;100478.81;1089553;54;19931;-82
2022/06/17 00:15:58;;;;;;;;;;;;;;;21.71;38.22;100471.91;1089492;54;20962;-82
2022/06/17 00:17:01;;;;;;;;;;;;;;;21.71;38.65;100469.19;1089661;54;19949;-82
2022/06/17 00:18:04;;;;;;;;;;;;;;;21.70;38.65;100475.69;1089632;46;19977;-81
2022/06/17 00:19:05;;;;;;;;;;;;;;;21.72;38.46;100479.03;1090142;46;19942;-81
2022/06/17 00:20:11;;;;;;;;;;;;;;;21.71;38.47;100479.25;1089613;54;19943;-81
2022/06/17 00:21:16;;;;;;;;;;;;;;;21.71;38.37;100479.25;1090102;46;19999;-82
2022/06/17 00:22:20;;;;;;;;;;;;;;;21.73;38.44;100488.88;1090043;54;19929;-83
2022/06/17 00:23:24;;;;;;;;;;;;;;;21.75;38.13;100488.66;1090224;54;19942;-83
2022/06/17 00:24:29;;;;;;;;;;;;;;;21.62;38.53;100487.63;1091653;46;19949;-82
2022/06/17 00:25:31;;;;;;;;;;;;;;;21.66;38.00;100488.88;1090187;54;19950;-81
2022/06/17 00:26:35;;;;;;;;;;;;;;;21.59;38.53;100484.44;1090206;54;19934;-84
2022/06/17 00:27:36;;;;;;;;;;;;;;;21.50;38.68;100481.06;1090093;54;19934;-80
2022/06/17 00:28:40;;;;;;;;;;;;;;;21.49;38.63;100484.84;1090169;54;19942;-82
2022/06/17 00:29:43;;;;;;;;;;;;;;;21.51;38.32;100490.91;1090166;54;19966;-82
2022/06/17 00:30:48;;;;;;;;;;;;;;;21.56;38.29;100485.69;1094669;38;20662;-82
2022/06/17 00:31:49;;;;;;;;;;;;;;;21.58;38.47;100490.94;1090849;46;19945;-83
2022/06/17 00:32:54;;;;;;;;;;;;;;;21.57;38.15;100487.34;1090848;46;19923;-86
2022/06/17 00:33:55;;;;;;;;;;;;;;;21.53;38.30;100488.84;1090292;54;19938;-83
2022/06/17 00:34:59;;;;;;;;;;;;;;;21.57;38.18;100492.78;1090462;46;19942;-83
2022/06/17 00:36:02;;;;;;;;;;;;;;;21.61;38.04;100487.81;1090194;54;19958;-82
2022/06/17 00:37:06;;;;;;;;;;;;;;;21.55;38.68;100500.31;1091509;46;19931;-84
2022/06/17 00:38:13;;;;;;;;;;;;;;;21.45;38.49;100505.31;1090054;46;20750;-82
2022/06/17 00:39:17;;;;;;;;;;;;;;;21.43;38.65;100502.81;1090019;54;19922;-83
2022/06/17 00:40:22;;;;;;;;;;;;;;;21.40;38.76;100511.38;1090238;46;19933;-82
2022/06/17 00:41:26;;;;;;;;;;;;;;;21.35;38.67;100516.59;1090114;54;19954;-84
2022/06/17 00:42:30;;;;;;;;;;;;;;;21.35;38.58;100516.59;1090190;54;20035;-83
2022/06/17 00:43:39;;;;;;;;;;;;;;;21.39;38.50;100511.59;1090199;54;19930;-83
2022/06/17 00:44:47;;;;;;;;;;;;;;;21.42;38.65;100516.63;1091449;46;20002;-83
2022/06/17 00:45:54;;;;;;;;;;;;;;;21.41;38.87;100512.22;1089798;54;19943;-82
2022/06/17 00:46:59;;;;;;;;;;;;;;;21.41;38.74;100506.78;1089988;54;19943;-81
2022/06/17 00:48:06;;;;;;;;;;;;;;;21.42;38.57;100509.28;1090024;54;19927;-83
2022/06/17 00:49:10;;;;;;;;;;;;;;;21.41;38.81;100509.50;1090059;54;19950;-82
2022/06/17 00:50:16;;;;;;;;;;;;;;;21.41;38.59;100512.22;1089999;54;19942;-83
2022/06/17 00:51:23;;;;;;;;;;;;;;;21.37;38.93;100509.09;1089988;54;20617;-84
2022/06/17 00:52:26;;;;;;;;;;;;;;;21.39;38.97;100508.88;1090058;54;19954;-86
2022/06/17 00:53:32;;;;;;;;;;;;;;;21.37;38.91;100510.94;1090100;54;19934;-86
2022/06/17 00:54:36;;;;;;;;;;;;;;;21.32;39.24;100512.41;1090050;54;19950;-83
2022/06/17 00:55:43;;;;;;;;;;;;;;;21.32;38.94;100506.13;1089723;54;19965;-84
2022/06/17 00:56:44;;;;;;;;;;;;;;;21.29;39.34;100510.09;1089420;54;20673;-83
2022/06/17 00:57:48;;;;;;;;;;;;;;;21.24;39.86;100504.44;1089729;54;19943;-83
2022/06/17 00:59:00;;;;;;;;;;;;;;;21.21;39.68;100507.56;1089715;54;19943;-83
2022/06/17 01:00:12;;;;;;;;;;;;;;;21.18;40.03;100510.69;1089997;54;19943;-82
2022/06/17 01:01:16;;;;;;;;;;;;;;;21.17;40.08;100501.69;1090014;54;19966;-82
2022/06/17 01:02:17;;;;;;;;;;;;;;;21.16;40.06;100507.34;1089981;54;20011;-83
2022/06/17 01:03:24;;;;;;;;;;;;;;;21.13;39.68;100500.41;1088316;54;19927;-81
2022/06/17 01:04:26;;;;;;;;;;;;;;;21.10;39.85;100503.56;1088474;54;19941;-83
2022/06/17 01:05:33;;;;;;;;;;;;;;;21.06;40.05;100501.44;1091996;39;20498;-82
2022/06/17 01:06:35;;;;;;;;;;;;;;;21.02;40.21;100501.00;1088535;54;19934;-83
2022/06/17 01:07:43;;;;;;;;;;;;;;;21.02;39.94;100496.41;1088256;54;19927;-82
2022/06/17 01:10:09;;;;;;;;;;;;;;;20.98;39.98;100499.75;1088430;54;19990;-83
2022/06/17 01:11:11;;;;;;;;;;;;;;;20.97;39.99;100492.63;1088510;54;19949;-83
2022/06/17 01:12:17;;;;;;;;;;;;;;;20.92;40.26;100490.50;1087994;54;19958;-82
2022/06/17 01:13:18;;;;;;;;;;;;;;;20.90;39.81;100491.75;1087691;54;19998;-83
2022/06/17 01:14:23;;;;;;;;;;;;;;;20.89;40.12;100493.63;1087623;54;19943;-81
2022/06/17 01:15:28;;;;;;;;;;;;;;;20.75;40.46;100479.13;1088378;54;19943;-83
2022/06/17 01:16:34;;;;;;;;;;;;;;;20.62;40.55;100484.50;1088457;54;19965;-83
2022/06/17 01:17:37;;;;;;;;;;;;;;;20.55;40.63;100485.28;1090950;39;20501;-82
2022/06/17 01:18:44;;;;;;;;;;;;;;;20.53;40.75;100481.94;1088203;54;19943;-81
2022/06/17 01:19:46;;;;;;;;;;;;;;;20.53;40.72;100481.09;1088429;54;19926;-84
2022/06/17 01:20:54;;;;;;;;;;;;;;;20.51;40.99;100475.88;1088460;54;19942;-81
2022/06/17 01:22:00;;;;;;;;;;;;;;;20.54;40.80;100469.19;1088482;54;19938;-82
2022/06/17 01:23:10;;;;;;;;;;;;;;;20.54;40.73;100469.19;1088428;54;19943;-84
2022/06/17 01:24:12;;;;;;;;;;;;;;;20.56;40.24;100470.66;1088339;54;19966;-83
2022/06/17 01:25:19;;;;;;;;;;;;;;;20.50;40.33;100459.78;1087988;54;19986;-83
2022/06/17 01:26:20;;;;;;;;;;;;;;;20.46;40.68;100462.03;1088442;54;19938;-82
2022/06/17 01:27:25;;;;;;;;;;;;;;;20.48;40.59;100461.84;1088449;54;19927;-83
2022/06/17 01:28:29;;;;;;;;;;;;;;;20.50;40.44;100466.03;1088444;54;19958;-82
2022/06/17 01:29:32;;;;;;;;;;;;;;;20.41;40.31;100464.53;1088092;54;19962;-82
2022/06/17 01:30:38;;;;;;;;;;;;;;;20.37;40.81;100472.22;1088069;54;19943;-83
2022/06/17 01:31:40;;;;;;;;;;;;;;;20.40;40.39;100462.84;1087659;54;20654;-82
2022/06/17 01:32:47;;;;;;;;;;;;;;;20.35;40.81;100458.00;1087777;54;19957;-84
2022/06/17 01:33:48;;;;;;;;;;;;;;;20.38;40.32;100454.91;1088344;54;19942;-83
2022/06/17 01:34:52;;;;;;;;;;;;;;;20.44;40.33;100455.13;1088026;54;19954;-82
2022/06/17 01:35:55;;;;;;;;;;;;;;;20.42;40.53;100461.59;1088094;54;19966;-82
2022/06/17 01:37:00;;;;;;;;;;;;;;;20.39;40.64;100459.31;1088082;54;19942;-82
2022/06/17 01:38:01;;;;;;;;;;;;;;;20.41;40.20;100462.63;1088306;54;19943;-82
2022/06/17 01:39:08;;;;;;;;;;;;;;;20.47;40.01;100461.00;1088401;54;20531;-83
2022/06/17 01:40:10;;;;;;;;;;;;;;;20.49;40.19;100468.97;1088241;54;19926;-81
2022/06/17 01:41:15;;;;;;;;;;;;;;;20.46;40.37;100469.34;1088333;54;20621;-83
2022/06/17 01:42:17;;;;;;;;;;;;;;;20.48;40.19;100475.44;1088405;54;19927;-84
2022/06/17 01:43:22;;;;;;;;;;;;;;;20.49;40.13;100468.97;1088326;54;20709;-81
2022/06/17 01:44:25;;;;;;;;;;;;;;;20.51;40.05;100472.28;1088464;54;19942;-85
2022/06/17 01:45:29;;;;;;;;;;;;;;;20.50;40.30;100474.19;1088516;54;19939;-82
2022/06/17 01:46:33;;;;;;;;;;;;;;;20.48;40.68;100473.53;1088520;54;19927;-82
2022/06/17 01:47:38;;;;;;;;;;;;;;;20.47;40.78;100471.84;1088423;54;19974;-82
2022/06/17 01:48:54;;;;;;;;;;;;;;;20.46;41.22;100475.59;1088102;54;19942;-82
2022/06/17 01:50:00;;;;;;;;;;;;;;;20.35;43.50;100474.31;1087723;54;19943;-84
2022/06/17 01:51:02;;;;;;;;;;;;;;;20.39;42.00;100481.03;1088343;54;20648;-82
2022/06/17 01:52:08;;;;;;;;;;;;;;;20.40;42.33;100473.69;1088338;54;19950;-82
2022/06/17 01:53:10;;;;;;;;;;;;;;;20.36;42.94;100484.13;1092326;39;20622;-81
2022/06/17 01:54:19;;;;;;;;;;;;;;;20.34;42.78;100478.06;1088388;54;19949;-81
2022/06/17 01:55:23;;;;;;;;;;;;;;;20.37;42.77;100471.38;1088448;54;20590;-82
2022/06/17 01:56:30;;;;;;;;;;;;;;;20.32;43.16;100469.25;1088467;54;19943;-83
2022/06/17 01:57:32;;;;;;;;;;;;;;;20.21;44.17;100467.13;1088469;54;19942;-82
2022/06/17 01:58:38;;;;;;;;;;;;;;;20.25;43.81;100474.66;1088465;54;20038;-83
2022/06/17 01:59:41;;;;;;;;;;;;;;;20.23;43.70;100467.72;1087932;54;20784;-82
2022/06/17 02:00:45;;;;;;;;;;;;;;;20.21;43.62;100476.09;1088160;54;19934;-81
2022/06/17 02:01:51;;;;;;;;;;;;;;;20.23;43.49;100465.88;1088403;54;19926;-83
2022/06/17 02:02:54;;;;;;;;;;;;;;;20.24;43.38;100481.13;1088324;54;19950;-81
2022/06/17 02:04:00;;;;;;;;;;;;;;;20.21;43.88;100469.84;1095451;39;20613;-83
2022/06/17 02:05:05;;;;;;;;;;;;;;;20.13;44.40;100475.38;1088414;54;19947;-82
2022/06/17 02:06:11;;;;;;;;;;;;;;;20.06;44.30;100478.06;1088126;54;19934;-84
2022/06/17 02:07:14;;;;;;;;;;;;;;;20.07;43.93;100472.44;1087929;54;19942;-85
2022/06/17 02:08:18;;;;;;;;;;;;;;;20.06;44.39;100472.66;1088210;54;20881;-83
2022/06/17 02:09:21;;;;;;;;;;;;;;;19.99;44.44;100475.31;1088410;54;19975;-82
2022/06/17 02:10:27;;;;;;;;;;;;;;;19.93;44.61;100471.50;1088446;54;19950;-82
2022/06/17 02:11:28;;;;;;;;;;;;;;;19.94;44.05;100480.47;1088184;54;20578;-83
2022/06/17 02:12:32;;;;;;;;;;;;;;;19.90;44.48;100476.47;1088387;54;19949;-82
2022/06/17 02:13:34;;;;;;;;;;;;;;;19.90;44.19;100476.47;1088325;54;19943;-84
2022/06/17 02:14:38;;;;;;;;;;;;;;;19.90;44.17;100479.19;1088338;46;19978;-83
2022/06/17 02:15:39;;;;;;;;;;;;;;;19.89;44.38;100475.63;1088337;54;19934;-83
2022/06/17 02:16:44;;;;;;;;;;;;;;;19.89;44.21;100480.22;1088457;54;19942;-82
2022/06/17 02:17:48;;;;;;;;;;;;;;;19.84;44.70;100485.38;1088383;54;20638;-81
2022/06/17 02:18:52;;;;;;;;;;;;;;;19.75;44.65;100490.91;1088127;54;19943;-82
2022/06/17 02:19:54;;;;;;;;;;;;;;;19.69;45.14;100497.13;1088315;54;19950;-82
2022/06/17 02:21:00;;;;;;;;;;;;;;;19.65;44.88;100493.09;1088296;54;19935;-82
2022/06/17 02:22:04;;;;;;;;;;;;;;;19.60;44.78;100492.84;1088479;46;19986;-83
2022/06/17 02:23:06;;;;;;;;;;;;;;;19.57;45.07;100493.25;1088147;54;19945;-82
2022/06/17 02:24:11;;;;;;;;;;;;;;;19.54;45.09;100488.22;1088013;54;20858;-82
2022/06/17 02:25:19;;;;;;;;;;;;;;;19.46;45.44;100492.72;1087904;54;19950;-85
2022/06/17 02:26:21;;;;;;;;;;;;;;;19.40;45.94;100493.50;1089524;46;19950;-82
2022/06/17 02:27:25;;;;;;;;;;;;;;;19.36;45.74;100486.78;1088017;54;19942;-85
2022/06/17 02:28:29;;;;;;;;;;;;;;;19.26;46.17;100505.22;1088015;54;19949;-84
2022/06/17 02:29:35;;;;;;;;;;;;;;;19.25;45.77;100495.41;1087956;54;19990;-83
2022/06/17 02:30:37;;;;;;;;;;;;;;;19.20;46.00;100497.84;1088141;54;19943;-84
2022/06/17 02:31:42;;;;;;;;;;;;;;;19.17;46.30;100499.94;1088091;54;19942;-86
2022/06/17 02:32:44;;;;;;;;;;;;;;;19.18;46.21;100493.44;1088213;46;19939;-84
2022/06/17 02:33:51;;;;;;;;;;;;;;;19.14;46.00;100500.31;1088027;54;19939;-84
2022/06/17 02:34:55;;;;;;;;;;;;;;;19.16;46.00;100491.97;1087967;54;19942;-81
2022/06/17 02:36:03;;;;;;;;;;;;;;;19.15;46.29;100490.28;1088900;46;20544;-81
2022/06/17 02:37:06;;;;;;;;;;;;;;;19.09;46.58;100494.59;1088471;54;19927;-86
2022/06/17 02:38:15;;;;;;;;;;;;;;;19.11;46.70;100500.66;1088379;54;19954;-84
2022/06/17 02:39:16;;;;;;;;;;;;;;;19.04;47.25;100498.91;1088369;54;19927;-82
2022/06/17 02:40:26;;;;;;;;;;;;;;;19.06;46.90;100496.84;1088479;54;19927;-82
2022/06/17 02:41:28;;;;;;;;;;;;;;;19.09;46.66;100504.59;1088412;54;19943;-84
2022/06/17 02:42:34;;;;;;;;;;;;;;;19.04;47.32;100510.59;1089640;46;19998;-85
2022/06/17 02:43:38;;;;;;;;;;;;;;;19.04;46.68;100505.19;1088149;54;19942;-84
2022/06/17 02:44:46;;;;;;;;;;;;;;;18.99;47.01;100507.59;1088357;54;19942;-85
2022/06/17 02:45:50;;;;;;;;;;;;;;;18.95;47.24;100501.72;1088308;54;19947;-85
2022/06/17 02:46:54;;;;;;;;;;;;;;;18.92;47.38;100506.66;1088325;54;19943;-85
2022/06/17 02:47:56;;;;;;;;;;;;;;;18.91;47.29;100508.53;1088126;54;19958;-85
2022/06/17 02:49:00;;;;;;;;;;;;;;;18.92;47.14;100512.06;1088419;54;19942;-84
2022/06/17 02:50:01;;;;;;;;;;;;;;;18.93;47.24;100505.66;1088311;54;19939;-85
2022/06/17 02:51:06;;;;;;;;;;;;;;;18.96;47.02;100508.00;1087996;54;19978;-84
2022/06/17 02:52:12;;;;;;;;;;;;;;;18.98;46.63;100508.66;1087936;54;19943;-85
2022/06/17 02:53:17;;;;;;;;;;;;;;;18.95;47.32;100509.84;1088437;54;19999;-84
2022/06/17 02:54:22;;;;;;;;;;;;;;;18.96;46.98;100508.00;1088188;54;19943;-82
2022/06/17 02:55:31;;;;;;;;;;;;;;;18.95;47.08;100517.97;1088216;54;19954;-82
2022/06/17 02:56:34;;;;;;;;;;;;;;;18.95;46.99;100514.44;1089904;39;20172;-82
2022/06/17 02:57:39;;;;;;;;;;;;;;;18.91;47.41;100513.09;1087765;54;19954;-83
2022/06/17 02:58:46;;;;;;;;;;;;;;;18.93;47.29;100511.06;1088267;54;19946;-82
2022/06/17 02:59:52;;;;;;;;;;;;;;;18.89;47.48;100515.16;1087808;54;20034;-82
2022/06/17 03:00:53;;;;;;;;;;;;;;;18.89;47.31;100509.75;1087864;54;21009;-83
2022/06/17 03:01:58;;;;;;;;;;;;;;;18.90;47.14;100504.13;1091368;39;20546;-83
2022/06/17 03:03:02;;;;;;;;;;;;;;;18.90;47.60;100504.13;1088313;54;19965;-81
2022/06/17 03:04:10;;;;;;;;;;;;;;;18.90;47.35;100508.69;1089813;39;20553;-80
2022/06/17 03:05:15;;;;;;;;;;;;;;;18.91;47.44;100504.97;1088262;54;19950;-80
2022/06/17 03:06:20;;;;;;;;;;;;;;;18.91;47.57;100507.66;1088196;54;19934;-80
2022/06/17 03:07:23;;;;;;;;;;;;;;;18.90;47.62;100508.69;1087877;54;19998;-84
2022/06/17 03:08:29;;;;;;;;;;;;;;;18.90;47.41;100508.69;1087356;54;19949;-81
2022/06/17 03:09:32;;;;;;;;;;;;;;;18.90;47.41;100503.28;1087499;54;19950;-80
2022/06/17 03:10:43;;;;;;;;;;;;;;;18.85;47.86;100504.69;1087810;54;20109;-81
2022/06/17 03:11:46;;;;;;;;;;;;;;;18.85;47.79;100501.13;1088027;54;19942;-81
2022/06/17 03:12:53;;;;;;;;;;;;;;;18.85;47.79;100499.28;1088275;54;19953;-80
2022/06/17 03:13:57;;;;;;;;;;;;;;;18.83;47.63;100504.03;1088335;54;19967;-81
2022/06/17 03:15:04;;;;;;;;;;;;;;;18.81;47.93;100511.50;1087955;54;20007;-83
2022/06/17 03:16:08;;;;;;;;;;;;;;;18.78;48.48;100506.50;1088277;54;19974;-82
2022/06/17 03:17:14;;;;;;;;;;;;;;;18.77;48.44;100496.69;1088204;54;19949;-82
2022/06/17 03:18:16;;;;;;;;;;;;;;;18.77;48.53;100502.09;1088220;54;19943;-82
2022/06/17 03:19:19;;;;;;;;;;;;;;;18.78;48.58;100506.50;1088169;54;19939;-83
2022/06/17 03:20:23;;;;;;;;;;;;;;;18.71;49.44;100500.97;1088206;54;19926;-80
2022/06/17 03:21:27;;;;;;;;;;;;;;;18.74;48.84;100518.72;1088290;54;19943;-84
2022/06/17 03:22:29;;;;;;;;;;;;;;;18.75;48.57;100506.84;1088337;54;19942;-84
2022/06/17 03:23:36;;;;;;;;;;;;;;;18.71;49.14;100513.66;1088320;54;19990;-82
2022/06/17 03:24:43;;;;;;;;;;;;;;;18.70;48.90;100514.72;1088285;54;19947;-84
2022/06/17 03:25:52;;;;;;;;;;;;;;;18.67;49.10;100512.38;1087644;54;19943;-83
2022/06/17 03:26:58;;;;;;;;;;;;;;;18.60;49.35;100511.44;1087855;54;20630;-84
2022/06/17 03:28:01;;;;;;;;;;;;;;;18.55;49.27;100512.81;1088071;54;19938;-85
2022/06/17 03:29:06;;;;;;;;;;;;;;;18.49;49.84;100518.13;1087834;54;19943;-84
2022/06/17 03:30:10;;;;;;;;;;;;;;;18.47;49.78;100514.75;1087846;54;19966;-84
2022/06/17 03:31:16;;;;;;;;;;;;;;;18.50;49.17;100509.84;1087891;54;19991;-83
2022/06/17 03:32:19;;;;;;;;;;;;;;;18.40;50.92;100520.09;1087860;54;20668;-82
2022/06/17 03:33:25;;;;;;;;;;;;;;;18.22;51.63;100528.56;1088236;54;19950;-82
2022/06/17 03:34:32;;;;;;;;;;;;;;;18.09;52.41;100523.78;1088278;54;19946;-81
2022/06/17 03:35:37;;;;;;;;;;;;;;;17.88;53.55;100521.72;1088260;54;20646;-81
2022/06/17 03:36:48;;;;;;;;;;;;;;;17.61;54.08;100523.97;1092100;39;20546;-83
2022/06/17 03:37:51;;;;;;;;;;;;;;;17.42;54.18;100525.25;1088209;54;19926;-83
2022/06/17 03:38:58;;;;;;;;;;;;;;;17.33;54.46;100524.47;1088146;54;19954;-85
2022/06/17 03:40:03;;;;;;;;;;;;;;;17.16;54.68;100534.50;1088161;54;20591;-84
2022/06/17 03:41:13;;;;;;;;;;;;;;;17.09;54.93;100537.06;1088044;54;20019;-83
2022/06/17 03:42:16;;;;;;;;;;;;;;;17.10;55.19;100540.59;1087863;54;19958;-84
2022/06/17 03:43:22;;;;;;;;;;;;;;;17.07;55.32;100543.66;1088802;39;20501;-83
2022/06/17 03:44:27;;;;;;;;;;;;;;;16.98;55.21;100545.53;1087911;54;19946;-82
2022/06/17 03:45:34;;;;;;;;;;;;;;;16.96;55.53;100544.88;1092281;31;20650;-81
2022/06/17 03:46:43;;;;;;;;;;;;;;;17.02;54.79;100554.13;1088069;54;19934;-83
2022/06/17 03:47:48;;;;;;;;;;;;;;;16.99;55.19;100564.28;1088264;54;19943;-83
2022/06/17 03:48:55;;;;;;;;;;;;;;;16.91;55.12;100558.84;1087941;54;19927;-83
2022/06/17 03:50:00;;;;;;;;;;;;;;;16.90;54.97;100562.59;1087903;54;19947;-83
2022/06/17 03:51:01;;;;;;;;;;;;;;;16.83;55.22;100561.59;1087973;54;19943;-83
2022/06/17 03:52:08;;;;;;;;;;;;;;;16.77;55.51;100557.72;1087972;54;20960;-80
2022/06/17 03:53:17;;;;;;;;;;;;;;;16.76;55.62;100566.88;1093564;39;20567;-81
2022/06/17 03:54:21;;;;;;;;;;;;;;;16.73;55.49;100567.19;1088353;54;19947;-83
2022/06/17 03:55:23;;;;;;;;;;;;;;;16.64;55.81;100563.66;1088362;54;19927;-83
2022/06/17 03:56:30;;;;;;;;;;;;;;;16.50;56.21;100567.09;1088342;54;19970;-83
2022/06/17 03:57:32;;;;;;;;;;;;;;;16.45;56.54;100562.19;1088089;54;19943;-83
2022/06/17 03:58:36;;;;;;;;;;;;;;;16.42;56.56;100567.09;1088329;54;19943;-84
2022/06/17 03:59:40;;;;;;;;;;;;;;;16.38;56.84;100570.13;1088327;54;19943;-84
2022/06/17 04:00:46;;;;;;;;;;;;;;;16.37;56.72;100567.59;1087677;54;19943;-85
2022/06/17 04:01:51;;;;;;;;;;;;;;;16.44;56.61;100573.13;1087960;54;19943;-84
2022/06/17 04:02:55;;;;;;;;;;;;;;;16.45;56.59;100567.59;1088438;39;20641;-82
2022/06/17 04:03:58;;;;;;;;;;;;;;;16.43;56.92;100571.47;1088382;54;19951;-81
2022/06/17 04:05:04;;;;;;;;;;;;;;;16.42;57.19;100577.88;1088291;54;19942;-82
2022/06/17 04:06:08;;;;;;;;;;;;;;;16.40;57.06;100572.63;1088373;54;19969;-81
2022/06/17 04:07:14;;;;;;;;;;;;;;;16.37;57.18;100573.00;1088118;54;19998;-80
2022/06/17 04:08:15;;;;;;;;;;;;;;;16.34;57.44;100576.84;1088308;54;19951;-84
2022/06/17 04:09:20;;;;;;;;;;;;;;;16.30;57.45;100574.66;1088158;54;19942;-82
2022/06/17 04:10:23;;;;;;;;;;;;;;;16.29;57.54;100587.31;1089310;39;20542;-83
2022/06/17 04:11:31;;;;;;;;;;;;;;;16.29;57.61;100584.63;1087959;54;19942;-83
2022/06/17 04:12:32;;;;;;;;;;;;;;;16.30;58.02;100588.16;1088092;54;19943;-84
2022/06/17 04:13:37;;;;;;;;;;;;;;;16.32;58.09;100584.31;1088014;54;19942;-81
2022/06/17 04:14:52;;;;;;;;;;;;;;;16.36;57.83;100588.31;1087954;54;19957;-80
2022/06/17 04:16:00;;;;;;;;;;;;;;;16.40;57.86;100582.59;1088368;54;19942;-81
2022/06/17 04:17:07;;;;;;;;;;;;;;;16.42;57.17;100580.59;1088385;54;19933;-80
2022/06/17 04:18:09;;;;;;;;;;;;;;;16.46;57.69;100581.91;1088074;54;19942;-81
2022/06/17 04:19:16;;;;;;;;;;;;;;;16.50;57.49;100578.69;1088077;54;19942;-81
2022/06/17 04:20:23;;;;;;;;;;;;;;;16.49;57.16;100584.28;1088161;54;19927;-81
2022/06/17 04:21:27;;;;;;;;;;;;;;;16.51;57.37;100585.78;1088506;54;19938;-81
2022/06/17 04:22:36;;;;;;;;;;;;;;;16.53;57.39;100589.16;1088511;54;19958;-81
2022/06/17 04:23:40;;;;;;;;;;;;;;;16.50;57.43;100592.19;1089102;46;19938;-82
2022/06/17 04:24:56;;;;;;;;;;;;;;;16.51;57.13;100588.50;1088447;54;19945;-80
2022/06/17 04:26:02;;;;;;;;;;;;;;;16.50;57.29;100588.66;1092731;39;20232;-83
2022/06/17 04:27:07;;;;;;;;;;;;;;;16.47;57.49;100594.41;1088861;47;19926;-81
2022/06/17 04:28:21;;;;;;;;;;;;;;;16.50;57.23;100594.91;1095576;47;19966;-80
2022/06/17 04:29:25;;;;;;;;;;;;;;;16.57;57.15;100589.66;1088461;54;19931;-80
2022/06/17 04:30:37;;;;;;;;;;;;;;;16.56;57.71;100593.38;1088392;54;19937;-79
2022/06/17 04:31:38;;;;;;;;;;;;;;;16.60;57.56;100600.13;1091357;47;19938;-80
2022/06/17 04:32:49;;;;;;;;;;;;;;;16.61;57.42;100600.94;1088383;54;19994;-80
2022/06/17 04:33:52;;;;;;;;;;;;;;;16.54;57.84;100600.78;1088180;54;19942;-81
2022/06/17 04:34:56;;;;;;;;;;;;;;;16.61;57.56;100599.13;1088063;54;19989;-82
2022/06/17 04:35:59;;;;;;;;;;;;;;;16.64;57.25;100606.84;1087892;54;19942;-83
2022/06/17 04:37:04;;;;;;;;;;;;;;;16.65;57.25;100605.84;1088018;47;19950;-81
2022/06/17 04:38:05;;;;;;;;;;;;;;;16.63;57.58;100610.56;1088035;54;19949;-81
2022/06/17 04:39:26;;;;;;;;;;;;;;;16.63;57.51;100610.56;1087998;54;19950;-80
2022/06/17 04:40:31;;;;;;;;;;;;;;;16.63;57.45;100605.16;1088102;54;19942;-81
2022/06/17 04:41:44;;;;;;;;;;;;;;;16.68;57.63;100612.75;1088304;54;19943;-79
2022/06/17 04:42:50;;;;;;;;;;;;;;;16.68;57.22;100608.22;1088217;54;19950;-81
2022/06/17 04:43:54;;;;;;;;;;;;;;;16.68;57.15;100613.59;1088234;54;19958;-80
2022/06/17 04:44:58;;;;;;;;;;;;;;;16.69;56.73;100606.34;1091705;39;20188;-80
2022/06/17 04:46:01;;;;;;;;;;;;;;;16.68;57.42;100607.34;1088231;54;19949;-83
2022/06/17 04:47:09;;;;;;;;;;;;;;;16.72;57.54;100611.41;1088196;54;19949;-82
2022/06/17 04:48:10;;;;;;;;;;;;;;;16.71;57.53;100609.72;1088308;54;19986;-80
2022/06/17 04:49:17;;;;;;;;;;;;;;;16.74;57.53;100605.81;1088258;54;19986;-82
2022/06/17 04:50:19;;;;;;;;;;;;;;;16.74;57.42;100611.22;1088452;54;19942;-81
2022/06/17 04:51:23;;;;;;;;;;;;;;;16.74;57.15;100616.63;1088412;54;20740;-80
2022/06/17 04:52:26;;;;;;;;;;;;;;;16.76;56.72;100614.59;1088205;54;19943;-80
2022/06/17 04:53:32;;;;;;;;;;;;;;;16.82;56.22;100613.91;1092136;39;20238;-81
2022/06/17 04:54:34;;;;;;;;;;;;;;;16.94;55.98;100619.84;1088138;54;19943;-79
2022/06/17 04:55:41;;;;;;;;;;;;;;;16.99;55.62;100618.31;1088191;54;19954;-80
2022/06/17 04:56:45;;;;;;;;;;;;;;;17.10;55.29;100618.91;1088203;54;20690;-80
2022/06/17 04:57:52;;;;;;;;;;;;;;;17.11;55.25;100616.06;1090805;46;19978;-81
2022/06/17 04:58:53;;;;;;;;;;;;;;;17.17;55.24;100619.06;1088530;54;19942;-80
2022/06/17 04:59:58;;;;;;;;;;;;;;;17.24;54.91;100614.69;1088438;54;19934;-80
2022/06/17 05:01:02;;;;;;;;;;;;;;;17.39;54.35;100612.06;1088286;54;19934;-80
2022/06/17 05:02:05;;;;;;;;;;;;;;;17.49;54.27;100610.00;1088951;39;20531;-82
2022/06/17 05:03:10;;;;;;;;;;;;;;;17.58;53.82;100610.81;1088469;54;19943;-80
2022/06/17 05:04:12;;;;;;;;;;;;;;;17.64;53.85;100611.97;1088216;54;19943;-82
2022/06/17 05:05:18;;;;;;;;;;;;;;;17.72;53.26;100614.59;1088060;54;19943;-81
2022/06/17 05:06:22;;;;;;;;;;;;;;;17.80;53.12;100617.25;1088299;54;19943;-81
2022/06/17 05:07:25;;;;;;;;;;;;;;;17.84;52.98;100618.59;1088474;54;19942;-81
2022/06/17 05:08:32;;;;;;;;;;;;;;;17.85;52.81;100616.72;1088435;54;19950;-79
2022/06/17 05:09:42;;;;;;;;;;;;;;;17.91;52.66;100618.69;1088472;54;19942;-82
2022/06/17 05:10:46;;;;;;;;;;;;;;;17.98;52.77;100618.88;1088466;54;19939;-82
2022/06/17 05:11:52;;;;;;;;;;;;;;;18.05;52.19;100617.13;1088377;54;19943;-79
2022/06/17 05:12:57;;;;;;;;;;;;;;;18.09;52.06;100621.97;1088777;46;19982;-82
2022/06/17 05:14:04;;;;;;;;;;;;;;;18.16;52.21;100624.81;1088466;54;19939;-80
2022/06/17 05:15:07;;;;;;;;;;;;;;;18.23;52.18;100627.66;1088405;54;19950;-80
2022/06/17 05:16:12;;;;;;;;;;;;;;;18.21;52.17;100630.53;1088468;54;19927;-79
2022/06/17 05:17:13;;;;;;;;;;;;;;;18.16;52.57;100626.69;1088456;54;19943;-79
2022/06/17 05:18:17;;;;;;;;;;;;;;;18.13;52.36;100637.88;1088393;54;19943;-80
2022/06/17 05:19:20;;;;;;;;;;;;;;;18.16;52.43;100632.94;1088500;54;19923;-80
2022/06/17 05:20:24;;;;;;;;;;;;;;;18.17;52.72;100636.50;1088437;54;19949;-82
2022/06/17 05:21:26;;;;;;;;;;;;;;;18.26;52.32;100637.25;1088233;54;19947;-82
2022/06/17 05:22:32;;;;;;;;;;;;;;;18.31;52.05;100637.56;1088076;54;19942;-81
2022/06/17 05:23:36;;;;;;;;;;;;;;;18.29;52.07;100636.91;1088109;54;19939;-82
2022/06/17 05:24:38;;;;;;;;;;;;;;;18.35;52.17;100641.59;1088427;54;19942;-82
2022/06/17 05:25:42;;;;;;;;;;;;;;;18.39;51.92;100648.34;1088473;54;19982;-79
2022/06/17 05:26:43;;;;;;;;;;;;;;;18.45;51.66;100650.31;1088450;54;19943;-81
2022/06/17 05:27:48;;;;;;;;;;;;;;;18.48;51.64;100647.25;1088453;54;19927;-82
2022/06/17 05:28:52;;;;;;;;;;;;;;;18.46;52.06;100652.00;1088529;54;19927;-85
2022/06/17 05:29:55;;;;;;;;;;;;;;;18.47;52.02;100650.97;1088489;54;19934;-86
2022/06/17 05:30:57;;;;;;;;;;;;;;;18.48;51.70;100644.53;1088620;54;19942;-85
2022/06/17 05:32:00;;;;;;;;;;;;;;;18.47;51.83;100652.81;1088501;54;19958;-85
2022/06/17 05:33:02;;;;;;;;;;;;;;;18.44;52.19;100651.31;1088568;54;19942;-85
2022/06/17 05:34:06;;;;;;;;;;;;;;;18.44;52.26;100656.72;1088531;54;19927;-86